CVC weather

Covington Municipal Airport
Covington, Georgia, United States

Public forecast

Using degrees Fahrenheit for public forecast. Weather courtesy of forecast.io.

METAR (pilot weather report)

Retrieved 2019/08/23 13:35 UTC (0 seconds ago):

KCVC 231335Z AUTO 29003KT 10SM CLR 28/22 A3007 RMK AO2 PNO

TAF (pilot weather forecast)

Closest forecast is DeKalb Peachtree Airport, 26.9 nm (49.8 km) WNW. Retrieved 2019/08/23 12:22 UTC (43 minutes ago):

TAF KPDK 231120Z 2312/2412 20003KT P6SM FEW150 FM231500 27004KT P6SM SCT035 FM231800 24004KT P6SM VCSH BKN050 TEMPO 2319/2323 4SM TSRA OVC025CB FM240600 00000KT P6SM BKN100